Weather History for Ord, NE

Change the Weather History Date:

Thursday, April 18, 2013

  Actual Average Record
Temperature  
Mean Temperature 30 °F 50 °F  
Max Temperature 33 °F 62 °F 90 °F (2004)
Min Temperature 26 °F 37 °F 26 °F (2013)
Degree Days  
Heating Degree Days 35    
Month to date heating degree days 450  
Since 1 July heating degree days 6391  
Cooling Degree Days 0    
Month to date cooling degree days 0  
Year to date cooling degree days 0  
Moisture  
Dew Point 23 °F    
Average Humidity 77    
Maximum Humidity 92    
Minimum Humidity 61    
Precipitation  
Precipitation 0.01 in 0.09 in 3.75 in (1920)
Month to date precipitation 2.04 1.35  
Year to date precipitation 4.27 3.61  
Sea Level Pressure  
Sea Level Pressure 29.96 in    
Wind  
Wind Speed 24 mph (NNW)    
Max Wind Speed 36 mph    
Max Gust Speed 43 mph    
Visibility 4 miles    
Events Fog , Snow    
T = Trace of Precipitation, MM = Missing Value Source: NWS Daily Summary

Daily Weather History Graph

Daily Weather History Graph

Search for Another Location

Airport:

Trip Planner

Search our weather history database for the weather conditions in past years. The results will help you decide how hot, cold, wet, or windy it might be!

Date:

Astronomy

Apr. 18, 2013 Rise Set
Actual Time 6:50 AM CDT 8:20 PM CDT
Civil Twilight 6:21 AM CDT 8:49 PM CDT
Nautical Twilight 5:46 AM CDT 9:24 PM CDT
Astronomical Twilight 5:09 AM CDT 10:01 PM CDT
Moon 1:03 PM CDT (4/18) 2:36 AM CDT (4/18)
Length of Visible Light 14h 27m
Length of Day
13h 29m
First Quarter, 52% of the Moon is Illuminated
Apr 18
First Quarter
Apr 25
Full
May 2
Last Quarter
May 9
New
May 17
First Quarter

Hourly Weather History & Observations

Time (CDT) Temp. Windchill Dew Point Humidity Pressure Visibility Wind Dir Wind Speed Gust Speed Precip Events Conditions
12:15 AM 28.4 °F 13.5 °F 26.6 °F 93% 29.93 in 10.0 mi North 26.5 mph 34.5 mph 0.00 in   Overcast
12:37 AM 28.4 °F 13.0 °F 24.8 °F 86% 29.95 in 10.0 mi North 28.8 mph 39.1 mph 0.00 in   Overcast
12:53 AM 28.9 °F 14.5 °F 25.0 °F 85% 30.02 in 10.0 mi North 25.3 mph 33.4 mph 0.00 in   Overcast
1:22 AM 28.4 °F 13.3 °F 24.8 °F 86% 29.92 in 10.0 mi North 27.6 mph 36.8 mph N/A   Overcast
1:53 AM 28.0 °F 13.9 °F 23.0 °F 81% 29.99 in 9.0 mi North 23.0 mph 40.3 mph 0.00 in   Overcast
2:41 AM 28.4 °F 14.7 °F 24.8 °F 86% 29.97 in 2.5 mi North 21.9 mph 33.4 mph 0.00 in Snow Light Snow
2:48 AM 28.4 °F 14.4 °F 24.8 °F 86% 29.93 in 1.8 mi North 23.0 mph 29.9 mph 0.00 in Snow Light Snow
2:53 AM 28.0 °F 13.0 °F 24.1 °F 85% 29.99 in 1.2 mi North 26.5 mph 33.4 mph 0.00 in Snow Light Snow
3:02 AM 26.6 °F 12.7 °F 24.8 °F 93% 29.92 in 1.0 mi NNW 20.7 mph 28.8 mph 0.00 in Snow Light Snow
3:21 AM 26.6 °F 12.0 °F 24.8 °F 93% 29.91 in 1.2 mi NNW 23.0 mph 28.8 mph 0.00 in Snow Light Snow
3:37 AM 26.6 °F 12.4 °F 24.8 °F 93% 29.95 in 1.0 mi NNW 21.9 mph 28.8 mph 0.00 in Snow Light Snow
3:51 AM 26.6 °F 11.7 °F 24.8 °F 93% 29.90 in 1.2 mi NNW 24.2 mph 31.1 mph 0.00 in Snow Light Snow
3:53 AM 27.0 °F 12.5 °F 24.1 °F 89% 29.97 in 1.2 mi NNW 23.0 mph 31.1 mph 0.00 in Snow Light Snow
4:10 AM 26.6 °F 11.7 °F 23.0 °F 86% 29.90 in 2.5 mi NNW 24.2 mph 36.8 mph 0.00 in Snow Light Snow
4:42 AM 26.6 °F 11.7 °F 23.0 °F 86% 29.92 in 1.8 mi NNW 24.2 mph 35.7 mph 0.00 in Snow Light Snow
4:53 AM 27.0 °F 11.6 °F 23.0 °F 85% 29.98 in 1.5 mi NNW 26.5 mph 34.5 mph 0.00 in Snow Light Snow
5:53 AM 26.1 °F 10.7 °F 23.0 °F 88% 29.97 in 1.2 mi NNW 25.3 mph 32.2 mph 0.00 in Snow Light Snow
6:19 AM 26.6 °F 10.6 °F 23.0 °F 86% 29.91 in 1.0 mi NNW 28.8 mph 34.5 mph 0.00 in Snow Light Snow
6:32 AM 26.6 °F 11.7 °F 23.0 °F 86% 29.91 in 1.0 mi NNW 24.2 mph 34.5 mph 0.00 in Snow Light Snow
6:41 AM 26.6 °F 11.7 °F 23.0 °F 86% 29.92 in 0.8 mi NNW 24.2 mph 32.2 mph 0.00 in Snow Light Snow
6:53 AM 26.1 °F 11.3 °F 23.0 °F 88% 29.99 in 0.8 mi NNW 23.0 mph - 0.01 in Snow Light Snow
7:18 AM 26.6 °F 13.1 °F 23.0 °F 86% 29.92 in 0.5 mi NNW 19.6 mph 31.1 mph 0.00 in Fog , Snow Snow
7:46 AM 26.6 °F 12.0 °F 23.0 °F 86% 29.93 in 0.5 mi NNW 23.0 mph 29.9 mph 0.00 in Fog , Snow Snow
7:53 AM 26.1 °F 10.1 °F 23.0 °F 88% 30.00 in 0.5 mi NNW 27.6 mph 36.8 mph 0.00 in Fog , Snow Snow
8:08 AM 26.6 °F 11.1 °F 23.0 °F 86% 29.93 in 0.8 mi NNW 26.5 mph 38.0 mph 0.00 in Snow Light Snow
8:53 AM 26.1 °F 12.3 °F 23.0 °F 88% 30.00 in 1.0 mi NNW 19.6 mph 27.6 mph 0.00 in Snow Light Snow
9:03 AM 26.6 °F 11.1 °F 23.0 °F 86% 29.92 in 1.5 mi NNW 26.5 mph 32.2 mph 0.00 in Snow Light Snow
9:22 AM 26.6 °F 12.7 °F 23.0 °F 86% 29.92 in 2.0 mi NW 20.7 mph 32.2 mph 0.00 in Snow Light Snow
9:41 AM 26.6 °F 10.8 °F 21.2 °F 80% 29.93 in 1.8 mi NNW 27.6 mph 36.8 mph 0.00 in Snow Light Snow
9:50 AM 26.6 °F 11.1 °F 21.2 °F 80% 29.93 in 2.0 mi NNW 26.5 mph 36.8 mph 0.00 in Snow Light Snow
9:53 AM 27.0 °F 11.6 °F 21.0 °F 78% 30.00 in 2.0 mi NNW 26.5 mph 36.8 mph 0.00 in Snow Light Snow
10:01 AM 26.6 °F 10.8 °F 21.2 °F 80% 29.93 in 1.5 mi NNW 27.6 mph 38.0 mph 0.00 in Snow Light Snow
10:17 AM 26.6 °F 10.3 °F 21.2 °F 80% 29.94 in 2.0 mi NNW 29.9 mph 36.8 mph 0.00 in Snow Light Snow
10:36 AM 28.4 °F 13.8 °F 21.2 °F 74% 29.94 in 3.0 mi NNW 25.3 mph 36.8 mph 0.00 in Snow Light Snow
10:46 AM 26.6 °F 10.8 °F 21.2 °F 80% 29.94 in 2.0 mi NNW 27.6 mph 39.1 mph 0.00 in Snow Light Snow
10:53 AM 28.0 °F 12.5 °F 21.9 °F 78% 30.02 in 2.5 mi NNW 28.8 mph 36.8 mph 0.00 in Snow Light Snow
11:09 AM 28.4 °F 13.0 °F 23.0 °F 80% 29.95 in 1.0 mi NNW 28.8 mph 34.5 mph 0.00 in Snow Light Snow
11:32 AM 26.6 °F 12.0 °F 23.0 °F 86% 29.95 in 0.8 mi NNW 23.0 mph 32.2 mph 0.00 in Snow Light Snow
11:44 AM 28.4 °F 13.8 °F 23.0 °F 80% 29.95 in 1.2 mi NW 25.3 mph - 0.00 in Snow Light Snow
11:53 AM 28.0 °F 13.0 °F 23.0 °F 81% 30.02 in 1.2 mi NNW 26.5 mph 34.5 mph 0.00 in Snow Light Snow
12:25 PM 28.4 °F 13.5 °F 23.0 °F 80% 29.94 in 0.8 mi NW 26.5 mph 36.8 mph 0.00 in Snow Light Snow
12:32 PM 28.4 °F 13.3 °F 23.0 °F 80% 29.94 in 1.2 mi NW 27.6 mph 36.8 mph 0.00 in Snow Light Snow
12:53 PM 28.9 °F 15.1 °F 24.1 °F 82% 30.01 in 1.8 mi NNW 23.0 mph 36.8 mph 0.00 in Snow Light Snow
1:13 PM 28.4 °F 13.5 °F 24.8 °F 86% 29.94 in 1.0 mi NW 26.5 mph 35.7 mph 0.00 in Snow Light Snow
1:21 PM 28.4 °F 12.7 °F 24.8 °F 86% 29.94 in 1.8 mi NW 29.9 mph 35.7 mph 0.00 in Snow Light Snow
1:29 PM 28.4 °F 13.3 °F 24.8 °F 86% 29.94 in 2.5 mi NNW 27.6 mph 41.4 mph 0.00 in Snow Light Snow
1:37 PM 30.2 °F 14.9 °F 24.8 °F 80% 29.94 in 3.0 mi NW 31.1 mph 36.8 mph 0.00 in Snow Light Snow
1:48 PM 30.2 °F 14.9 °F 24.8 °F 80% 29.94 in 2.5 mi NW 31.1 mph 39.1 mph 0.00 in Snow Light Snow
1:53 PM 30.9 °F 16.2 °F 24.1 °F 76% 30.01 in 4.0 mi NNW 29.9 mph 40.3 mph 0.00 in Snow Light Snow
2:53 PM 30.9 °F 15.3 °F 24.1 °F 76% 30.01 in 8.0 mi NNW 34.5 mph 39.1 mph 0.00 in   Overcast
3:53 PM 32.0 °F 17.9 °F 23.0 °F 69% 30.01 in 10.0 mi NNW 28.8 mph 38.0 mph 0.00 in   Overcast
4:25 PM 33.8 °F 20.8 °F 23.0 °F 65% 29.94 in 10.0 mi NNW 26.5 mph 38.0 mph 0.00 in   Overcast
4:53 PM 33.1 °F 18.9 °F 21.9 °F 64% 30.01 in 10.0 mi NNW 31.1 mph 38.0 mph 0.00 in   Overcast
5:53 PM 32.0 °F 18.4 °F 21.9 °F 66% 30.03 in 10.0 mi NNW 26.5 mph 40.3 mph 0.00 in   Overcast
6:53 PM 30.9 °F 17.2 °F 24.1 °F 76% 30.04 in 6.0 mi NW 25.3 mph 31.1 mph 0.00 in   Overcast
7:01 PM 30.2 °F 17.1 °F 24.8 °F 80% 29.97 in 1.8 mi NNW 21.9 mph 32.2 mph 0.00 in Snow Light Snow
7:09 PM 30.2 °F 18.5 °F 24.8 °F 80% 29.97 in 2.0 mi NNW 17.3 mph 28.8 mph 0.00 in Snow Light Snow
7:16 PM 30.2 °F 18.5 °F 24.8 °F 80% 29.97 in 9.0 mi NNW 17.3 mph - 0.00 in   Overcast
7:53 PM 30.9 °F 18.1 °F 24.1 °F 76% 30.04 in 10.0 mi NW 21.9 mph 27.6 mph 0.00 in   Overcast
8:53 PM 30.0 °F 18.3 °F 23.0 °F 75% 30.05 in 10.0 mi NW 17.3 mph 26.5 mph N/A   Mostly Cloudy
9:53 PM 30.0 °F 19.5 °F 23.0 °F 75% 30.07 in 10.0 mi NW 13.8 mph - N/A   Overcast
10:53 PM 28.9 °F 19.2 °F 21.0 °F 72% 30.06 in 10.0 mi NW 11.5 mph - N/A   Clear
11:53 PM 28.0 °F 17.0 °F 19.9 °F 72% 30.04 in 10.0 mi NW 13.8 mph - N/A   Clear